METAR Data
IDs: Format: Raw Decoded Include TAF

Data at: 0303 UTC 25 Feb 2021

LSZA 250250Z AUTO VRB02KT CAVOK 04/02 Q1034